Time;durP1;ratioP1;P1;durP2;ratioP2;P2;SDS_P1;SDS_P2;PMS_P1;PMS_P2;Temp;Humidity;BMP_temperature;BMP_pressure;BME280_temperature;BME280_humidity;BME280_pressure;Samples;Min_cycle;Max_cycle;Signal;HPM_P1;HPM_P2
2023/04/21 00:00:08;;;;;;;17.73;14.43;;;;;;;7.48;91.09;101484.00;4915382;29;20492;-71
2023/04/21 00:02:38;;;;;;;17.77;14.45;;;;;;;7.47;91.69;101482.28;4897428;29;20084;-71
2023/04/21 00:05:08;;;;;;;18.77;14.15;;;;;;;7.43;90.80;101475.22;4880158;29;20055;-71
2023/04/21 00:07:34;;;;;;;16.55;13.88;;;;;;;7.42;90.95;101472.59;4897169;29;20044;-71
2023/04/21 00:09:59;;;;;;;18.58;14.82;;;;;;;7.39;91.88;101478.72;4911471;29;20044;-71
2023/04/21 00:12:25;;;;;;;24.15;16.75;;;;;;;7.39;92.41;101462.91;4895373;29;20036;-71
2023/04/21 00:14:50;;;;;;;23.50;15.23;;;;;;;7.39;92.75;101457.66;4893873;29;20040;-72
2023/04/21 00:17:15;;;;;;;19.98;14.73;;;;;;;7.37;92.51;101447.97;4912466;29;20028;-72
2023/04/21 00:19:41;;;;;;;20.10;14.15;;;;;;;7.34;91.71;101448.84;4911054;29;20043;-72
2023/04/21 00:22:10;;;;;;;20.85;14.75;;;;;;;7.33;92.59;101441.84;4877393;29;20794;-72
2023/04/21 00:24:36;;;;;;;19.90;14.30;;;;;;;7.31;93.09;101441.84;4917295;29;20669;-72
2023/04/21 00:27:02;;;;;;;17.52;14.05;;;;;;;7.32;92.24;101448.88;4914429;29;20111;-72
2023/04/21 00:29:28;;;;;;;18.27;14.63;;;;;;;7.30;92.39;101434.81;4930218;29;20047;-72
2023/04/21 00:31:55;;;;;;;26.13;15.13;;;;;;;7.27;92.53;101426.91;4926146;29;20024;-72
2023/04/21 00:34:20;;;;;;;20.77;14.20;;;;;;;7.29;92.88;101422.53;4915734;29;20079;-72
2023/04/21 00:36:46;;;;;;;18.95;14.95;;;;;;;7.28;93.28;101428.66;4930138;29;20503;-72
2023/04/21 00:39:11;;;;;;;20.10;15.52;;;;;;;7.30;94.27;101433.94;4915656;29;20040;-72
2023/04/21 00:41:38;;;;;;;24.02;16.05;;;;;;;7.31;94.69;101431.28;4899559;29;20051;-72
2023/04/21 00:44:05;;;;;;;23.95;14.88;;;;;;;7.31;94.43;101430.41;4919567;29;20036;-72
2023/04/21 00:46:32;;;;;;;18.60;14.68;;;;;;;7.29;94.01;101426.91;4934101;29;20027;-72
2023/04/21 00:48:58;;;;;;;20.65;15.40;;;;;;;7.28;93.83;101419.88;4933791;29;20124;-72
2023/04/21 00:51:26;;;;;;;21.02;15.75;;;;;;;7.28;94.19;101430.44;4902434;29;20043;-72
2023/04/21 00:53:54;;;;;;;20.33;15.02;;;;;;;7.25;94.54;101435.69;4911915;29;20041;-73
2023/04/21 00:56:25;;;;;;;19.52;14.88;;;;;;;7.26;94.69;101430.41;4919384;29;20474;-73
2023/04/21 00:58:52;;;;;;;21.17;15.70;;;;;;;7.28;95.27;101430.44;4917550;29;20078;-73
2023/04/21 01:01:19;;;;;;;23.70;14.88;;;;;;;7.26;95.10;101432.16;4902478;29;20035;-73
2023/04/21 01:03:46;;;;;;;19.52;14.82;;;;;;;7.23;93.43;101424.28;4914986;29;20412;-73
2023/04/21 01:06:11;;;;;;;21.35;14.88;;;;;;;7.21;94.21;101418.13;4897895;29;20028;-73
2023/04/21 01:08:37;;;;;;;22.45;14.80;;;;;;;7.19;94.99;101422.50;4914629;29;20048;-74
2023/04/21 01:11:10;;;;;;;20.90;15.23;;;;;;;7.18;95.51;101426.91;4898378;29;20064;-73
2023/04/21 01:13:39;;;;;;;21.58;15.13;;;;;;;7.15;94.45;101418.13;4882625;29;20412;-73
2023/04/21 01:16:06;;;;;;;24.92;15.18;;;;;;;7.18;95.65;101419.00;4882985;29;20024;-73
2023/04/21 01:18:32;;;;;;;21.75;15.82;;;;;;;7.17;96.38;101418.97;4892582;29;20118;-74
2023/04/21 01:20:58;;;;;;;20.83;15.55;;;;;;;7.15;96.08;101413.72;4899746;29;20039;-74
2023/04/21 01:23:24;;;;;;;20.77;14.73;;;;;;;7.17;95.71;101418.97;4887689;29;20395;-73
2023/04/21 01:25:51;;;;;;;20.23;14.75;;;;;;;7.14;95.19;101405.81;4914152;29;20492;-74
2023/04/21 01:28:21;;;;;;;18.77;14.60;;;;;;;7.14;95.49;101403.19;4882529;29;20136;-74
2023/04/21 01:30:47;;;;;;;20.50;15.73;;;;;;;7.16;95.74;101397.03;4899728;29;20373;-71
2023/04/21 01:33:12;;;;;;;19.30;13.95;;;;;;;7.16;96.10;101402.31;4912755;29;20355;-71
2023/04/21 01:35:39;;;;;;;21.83;15.80;;;;;;;7.17;96.59;101390.00;4932687;29;20042;-71
2023/04/21 01:38:05;;;;;;;23.77;15.98;;;;;;;7.14;96.37;101409.31;4918101;29;20052;-71
2023/04/21 01:40:30;;;;;;;20.35;15.30;;;;;;;7.14;98.12;101413.72;4913246;29;20036;-71
2023/04/21 01:42:56;;;;;;;24.48;15.93;;;;;;;7.10;97.65;101404.94;4901308;29;20127;-71
2023/04/21 01:45:21;;;;;;;26.20;16.13;;;;;;;7.08;98.76;101401.44;4887737;29;20083;-72
2023/04/21 01:47:47;;;;;;;21.70;16.13;;;;;;;7.09;97.54;101403.16;4899445;29;20031;-71
2023/04/21 01:50:12;;;;;;;21.42;15.90;;;;;;;7.08;98.12;101393.53;4899902;29;20567;-71
2023/04/21 01:52:41;;;;;;;22.65;16.08;;;;;;;7.10;98.85;101389.16;4913281;29;20032;-71
2023/04/21 01:55:07;;;;;;;22.75;16.10;;;;;;;7.08;98.17;101383.00;4899974;29;20059;-71
2023/04/21 01:57:32;;;;;;;23.77;16.08;;;;;;;7.06;98.03;101382.97;4900256;29;20468;-71
2023/04/21 01:59:58;;;;;;;21.75;16.10;;;;;;;7.05;98.21;101373.34;4887217;29;20032;-71
2023/04/21 02:02:24;;;;;;;21.38;15.45;;;;;;;7.04;97.49;101375.94;4884876;29;20039;-71
2023/04/21 02:04:50;;;;;;;21.92;15.68;;;;;;;7.02;97.97;101373.34;4898619;29;20128;-72
2023/04/21 02:07:16;;;;;;;24.73;16.13;;;;;;;7.01;97.17;101365.41;4901039;29;20444;-71
2023/04/21 02:09:41;;;;;;;19.70;14.38;;;;;;;7.02;96.54;101369.81;4889273;29;20084;-72
2023/04/21 02:12:07;;;;;;;21.88;16.40;;;;;;;7.03;96.29;101363.69;4885755;29;20467;-71
2023/04/21 02:14:32;;;;;;;20.88;15.05;;;;;;;7.05;97.46;101360.16;4889760;29;20068;-72
2023/04/21 02:16:58;;;;;;;23.77;15.75;;;;;;;7.05;96.37;101351.41;4898772;29;20059;-72
2023/04/21 02:19:23;;;;;;;20.40;15.25;;;;;;;7.07;97.10;101349.59;4910012;29;20061;-72
2023/04/21 02:21:49;;;;;;;21.48;15.88;;;;;;;7.07;97.39;101341.72;4916450;29;20040;-72
2023/04/21 02:24:14;;;;;;;21.63;15.18;;;;;;;7.06;98.06;101346.09;4900288;29;20471;-72
2023/04/21 02:26:40;;;;;;;21.55;15.32;;;;;;;7.03;98.16;101337.34;4900451;29;20136;-71
2023/04/21 02:29:06;;;;;;;24.52;14.75;;;;;;;7.00;96.98;101338.22;4916673;29;20051;-71
2023/04/21 02:31:31;;;;;;;22.98;16.27;;;;;;;6.97;96.43;101337.31;4911466;29;20040;-72
2023/04/21 02:33:57;;;;;;;26.08;16.50;;;;;;;6.97;97.49;101335.56;4917016;29;20371;-71
2023/04/21 02:36:23;;;;;;;21.33;15.52;;;;;;;6.95;96.23;101342.59;4908439;29;20049;-72
2023/04/21 02:38:50;;;;;;;22.98;16.80;;;;;;;6.98;97.40;101341.72;4895940;29;20111;-72
2023/04/21 02:41:15;;;;;;;23.83;15.63;;;;;;;6.97;95.58;101337.31;4899240;29;20040;-71
2023/04/21 02:43:41;;;;;;;24.85;17.90;;;;;;;7.01;97.44;101329.44;4917236;29;20042;-72
2023/04/21 02:46:07;;;;;;;28.75;20.00;;;;;;;6.98;99.00;101323.28;4900073;29;20028;-72
2023/04/21 02:48:33;;;;;;;26.67;18.55;;;;;;;6.95;98.62;101329.44;4915997;29;20043;-72
2023/04/21 02:50:59;;;;;;;28.95;18.52;;;;;;;6.95;98.59;101325.91;4884426;29;20120;-72
2023/04/21 02:53:24;;;;;;;30.75;19.42;;;;;;;6.94;98.48;101318.91;4896383;29;20040;-72
2023/04/21 02:55:51;;;;;;;26.27;18.80;;;;;;;6.95;99.11;101321.53;4895665;29;20028;-72
2023/04/21 02:58:17;;;;;;;30.60;19.67;;;;;;;6.96;99.36;101319.78;4917135;29;20045;-72
2023/04/21 03:00:43;;;;;;;26.95;19.67;;;;;;;6.95;99.45;101316.28;4884496;29;20051;-72
2023/04/21 03:03:08;;;;;;;27.30;19.08;;;;;;;6.96;99.94;101322.41;4898973;29;20021;-72
2023/04/21 03:05:34;;;;;;;28.30;19.73;;;;;;;6.95;100.00;101318.00;4914747;29;20401;-72
2023/04/21 03:07:59;;;;;;;30.67;20.42;;;;;;;6.93;99.42;101315.38;4915066;29;20044;-72
2023/04/21 03:10:25;;;;;;;30.08;19.42;;;;;;;6.93;98.68;101319.78;4916082;29;20024;-72
2023/04/21 03:12:55;;;;;;;26.30;19.23;;;;;;;6.93;98.57;101318.03;4886228;29;20045;-72
2023/04/21 03:15:21;;;;;;;30.77;21.08;;;;;;;6.92;99.08;101320.63;4889002;29;20036;-72
2023/04/21 03:17:47;;;;;;;31.80;21.13;;;;;;;6.92;99.57;101326.78;4912420;29;20111;-72
2023/04/21 03:20:12;;;;;;;30.10;21.20;;;;;;;6.91;98.38;101313.63;4915601;29;20120;-72
2023/04/21 03:22:38;;;;;;;32.45;20.73;;;;;;;6.94;99.20;101316.25;4916898;29;20056;-72
2023/04/21 03:25:06;;;;;;;33.40;22.30;;;;;;;6.91;97.49;101309.25;4914928;29;20040;-72
2023/04/21 03:27:32;;;;;;;37.05;22.10;;;;;;;6.93;98.08;101312.75;4916721;29;20066;-72
2023/04/21 03:29:58;;;;;;;32.78;21.30;;;;;;;6.94;98.76;101311.00;4895860;29;20032;-73
2023/04/21 03:32:23;;;;;;;35.35;22.80;;;;;;;6.93;99.47;101301.34;4916591;29;20164;-72
2023/04/21 03:34:49;;;;;;;34.13;23.00;;;;;;;6.92;99.45;101310.97;4899229;29;20063;-72
2023/04/21 03:37:16;;;;;;;33.40;21.85;;;;;;;6.86;98.66;101305.72;4904185;29;20052;-72
2023/04/21 03:39:41;;;;;;;31.83;20.85;;;;;;;6.85;98.71;101306.63;4930728;29;20036;-72
2023/04/21 03:42:07;;;;;;;29.80;20.60;;;;;;;6.84;98.24;101312.75;4930470;29;20063;-73
2023/04/21 03:44:33;;;;;;;36.65;24.25;;;;;;;6.85;99.83;101306.63;4914489;29;20115;-72
2023/04/21 03:47:02;;;;;;;35.25;23.65;;;;;;;6.84;99.23;101302.22;4914957;29;20047;-72
2023/04/21 03:49:27;;;;;;;35.08;22.75;;;;;;;6.81;99.59;101304.84;4930565;29;20028;-72
2023/04/21 03:51:53;;;;;;;32.75;22.17;;;;;;;6.79;99.56;101301.31;4915984;29;20040;-72
2023/04/21 03:54:18;;;;;;;36.47;24.13;;;;;;;6.78;100.00;101310.13;4925096;29;20023;-72
2023/04/21 03:56:44;;;;;;;39.40;25.35;;;;;;;6.73;100.00;101299.56;4916117;29;20048;-72
2023/04/21 03:59:09;;;;;;;40.17;25.83;;;;;;;6.71;100.00;101297.81;4915961;29;20028;-72
2023/04/21 04:01:35;;;;;;;40.42;24.58;;;;;;;6.71;100.00;101298.69;4916306;29;20052;-72
2023/04/21 04:04:00;;;;;;;39.38;25.30;;;;;;;6.70;100.00;101296.94;4915916;29;20115;-72
2023/04/21 04:06:27;;;;;;;38.78;25.25;;;;;;;6.71;100.00;101297.81;4916128;29;20040;-72
2023/04/21 04:08:52;;;;;;;40.58;26.15;;;;;;;6.68;100.00;101299.56;4897028;29;20545;-72
2023/04/21 04:11:18;;;;;;;40.72;25.52;;;;;;;6.67;100.00;101300.41;4904484;29;20060;-72
2023/04/21 04:13:43;;;;;;;41.17;27.92;;;;;;;6.64;100.00;101296.91;4898376;29;20040;-72
2023/04/21 04:16:09;;;;;;;39.45;25.75;;;;;;;6.61;100.00;101302.19;4908973;29;20499;-72
2023/04/21 04:18:34;;;;;;;42.15;25.60;;;;;;;6.61;100.00;101308.31;4914945;29;20054;-72
2023/04/21 04:21:06;;;;;;;38.47;23.50;;;;;;;6.61;100.00;101308.31;4921418;29;20131;-72
2023/04/21 04:23:33;;;;;;;39.20;25.95;;;;;;;6.60;100.00;101309.22;4922252;29;20586;-72
2023/04/21 04:25:58;;;;;;;38.80;25.33;;;;;;;6.59;100.00;101311.81;4922076;29;20030;-72
2023/04/21 04:28:24;;;;;;;38.00;26.15;;;;;;;6.60;100.00;101308.31;4920195;29;20596;-72
2023/04/21 04:30:49;;;;;;;39.88;25.63;;;;;;;6.57;100.00;101303.91;4918161;29;20036;-72
2023/04/21 04:33:15;;;;;;;44.20;27.77;;;;;;;6.58;100.00;101312.72;4922102;29;20046;-73
2023/04/21 04:35:40;;;;;;;42.80;27.45;;;;;;;6.57;100.00;101311.81;4920393;29;20032;-72
2023/04/21 04:38:06;;;;;;;43.72;27.42;;;;;;;6.58;100.00;101313.59;4921890;29;20071;-72
2023/04/21 04:40:32;;;;;;;39.55;26.92;;;;;;;6.57;100.00;101306.56;4904584;29;20067;-71
2023/04/21 04:42:58;;;;;;;38.28;25.30;;;;;;;6.55;100.00;101310.06;4888796;29;20048;-71
2023/04/21 04:45:27;;;;;;;40.03;25.35;;;;;;;6.57;100.00;101309.19;4905348;29;20029;-72
2023/04/21 04:47:52;;;;;;;42.20;26.23;;;;;;;6.56;100.00;101312.69;4904636;29;20032;-72
2023/04/21 04:50:18;;;;;;;38.38;25.90;;;;;;;6.57;100.00;101316.22;4909303;29;20532;-72
2023/04/21 04:52:45;;;;;;;40.97;27.92;;;;;;;6.56;100.00;101315.34;4898438;29;20048;-72
2023/04/21 04:55:11;;;;;;;40.88;27.35;;;;;;;6.53;100.00;101315.34;4915821;29;20028;-72
2023/04/21 04:57:37;;;;;;;39.20;26.20;;;;;;;6.55;100.00;101307.41;4921795;29;20126;-72
2023/04/21 05:00:06;;;;;;;42.90;28.05;;;;;;;6.58;100.00;101316.22;4921568;29;20103;-71
2023/04/21 05:02:31;;;;;;;40.15;26.90;;;;;;;6.60;100.00;101314.47;4904995;29;20047;-71
2023/04/21 05:04:57;;;;;;;42.78;27.52;;;;;;;6.62;100.00;101312.69;4920171;29;20387;-71
2023/04/21 05:07:22;;;;;;;39.63;27.50;;;;;;;6.62;100.00;101315.34;4921826;29;20465;-71
2023/04/21 05:09:48;;;;;;;43.45;27.67;;;;;;;6.62;100.00;101320.59;4904457;29;20163;-72
2023/04/21 05:12:13;;;;;;;45.17;28.35;;;;;;;6.61;100.00;101313.59;4894721;29;20089;-71
2023/04/21 05:14:39;;;;;;;44.67;28.30;;;;;;;6.64;100.00;101318.84;4888994;29;20502;-72
2023/04/21 05:17:04;;;;;;;41.72;26.38;;;;;;;6.68;100.00;101325.00;4921789;29;20036;-71
2023/04/21 05:19:29;;;;;;;42.38;27.15;;;;;;;6.70;100.00;101325.00;4915801;29;20066;-71
2023/04/21 05:22:01;;;;;;;43.80;27.40;;;;;;;6.68;100.00;101320.63;4921787;29;20557;-71
2023/04/21 05:24:27;;;;;;;39.45;27.00;;;;;;;6.69;100.00;101326.75;4921496;29;20202;-71
2023/04/21 05:26:53;;;;;;;39.22;26.20;;;;;;;6.71;100.00;101329.41;4888964;29;20024;-72
2023/04/21 05:29:18;;;;;;;47.20;29.13;;;;;;;6.72;100.00;101333.78;4918231;29;20052;-72
2023/04/21 05:31:44;;;;;;;43.10;28.65;;;;;;;6.70;100.00;101330.25;4914813;29;20055;-72
2023/04/21 05:34:09;;;;;;;41.70;27.15;;;;;;;6.72;100.00;101336.41;4907197;29;20040;-71
2023/04/21 05:36:35;;;;;;;44.67;28.20;;;;;;;6.72;100.00;101339.91;4899621;29;20063;-71
2023/04/21 05:39:00;;;;;;;38.60;27.30;;;;;;;6.73;100.00;101341.69;4899343;29;20044;-71
2023/04/21 05:41:26;;;;;;;43.03;29.50;;;;;;;6.76;100.00;101343.44;4899643;29;20481;-71
2023/04/21 05:43:51;;;;;;;48.47;30.02;;;;;;;6.83;100.00;101346.09;4899202;29;20041;-71
2023/04/21 05:46:16;;;;;;;45.25;30.13;;;;;;;6.90;100.00;101341.72;4899259;29;20108;-71
2023/04/21 05:48:42;;;;;;;50.00;32.45;;;;;;;6.95;100.00;101342.59;4898939;29;20048;-71
2023/04/21 05:51:12;;;;;;;41.20;28.08;;;;;;;6.99;100.00;101354.88;4899127;29;20024;-71
2023/04/21 05:53:38;;;;;;;49.23;31.07;;;;;;;7.02;100.00;101348.72;4898913;29;20033;-72
2023/04/21 05:56:05;;;;;;;41.60;26.80;;;;;;;7.04;100.00;101353.13;4901332;29;20033;-72
2023/04/21 05:58:30;;;;;;;43.65;29.90;;;;;;;7.03;100.00;101347.88;4916759;29;20139;-72
2023/04/21 06:00:56;;;;;;;43.72;28.13;;;;;;;7.09;100.00;101347.88;4916328;29;20106;-72
2023/04/21 06:03:21;;;;;;;46.22;30.08;;;;;;;7.13;100.00;101354.03;4918186;29;20146;-71
2023/04/21 06:05:51;;;;;;;42.85;28.92;;;;;;;7.15;100.00;101352.28;4918054;29;20123;-71
2023/04/21 06:08:17;;;;;;;44.10;30.40;;;;;;;7.18;100.00;101347.88;4900916;29;20070;-71
2023/04/21 06:10:42;;;;;;;44.03;29.95;;;;;;;7.23;100.00;101346.13;4917646;29;20038;-72
2023/04/21 06:13:08;;;;;;;49.33;31.20;;;;;;;7.27;100.00;101342.63;4902797;29;20094;-72
2023/04/21 06:15:33;;;;;;;45.22;30.10;;;;;;;7.30;100.00;101345.25;4907067;29;20047;-71
2023/04/21 06:17:58;;;;;;;47.72;28.17;;;;;;;7.33;100.00;101339.09;4893947;29;20101;-71
2023/04/21 06:20:24;;;;;;;46.63;30.50;;;;;;;7.37;100.00;101337.31;4904511;29;20023;-71
2023/04/21 06:22:49;;;;;;;44.30;29.15;;;;;;;7.42;100.00;101340.81;4917915;29;20048;-71
2023/04/21 06:25:15;;;;;;;46.53;31.13;;;;;;;7.49;100.00;101342.59;4917570;29;20091;-72
2023/04/21 06:27:40;;;;;;;41.63;29.80;;;;;;;7.54;100.00;101340.81;4917666;29;20083;-72
2023/04/21 06:30:07;;;;;;;47.42;30.98;;;;;;;7.59;100.00;101343.44;4911185;29;20044;-72
2023/04/21 06:32:32;;;;;;;50.15;32.38;;;;;;;7.64;100.00;101341.69;4913188;29;20476;-72
2023/04/21 06:34:57;;;;;;;44.90;31.02;;;;;;;7.71;100.00;101344.28;4900535;29;20071;-72
2023/04/21 06:37:23;;;;;;;48.97;31.30;;;;;;;7.81;100.00;101341.66;4917417;29;20554;-72
2023/04/21 06:39:49;;;;;;;45.75;31.33;;;;;;;7.89;100.00;101338.13;4917295;29;20418;-72
2023/04/21 06:42:14;;;;;;;45.90;30.65;;;;;;;7.97;100.00;101338.97;4917351;29;20044;-72
2023/04/21 06:44:43;;;;;;;43.85;29.02;;;;;;;8.03;100.00;101348.63;4917316;29;20024;-71
2023/04/21 06:47:08;;;;;;;45.05;30.52;;;;;;;8.05;100.00;101340.72;4917433;29;20091;-72
2023/04/21 06:49:36;;;;;;;45.60;30.65;;;;;;;8.07;100.00;101331.91;4916851;29;20058;-72
2023/04/21 06:52:01;;;;;;;46.17;31.25;;;;;;;8.15;100.00;101334.50;4917262;29;20111;-72
2023/04/21 06:54:27;;;;;;;43.83;30.90;;;;;;;8.24;100.00;101339.75;4894949;29;20028;-72
2023/04/21 06:56:52;;;;;;;43.85;29.95;;;;;;;8.30;100.00;101331.81;4899863;29;20066;-72
2023/04/21 06:59:18;;;;;;;45.92;31.02;;;;;;;8.37;100.00;101340.56;4905497;29;20040;-71
2023/04/21 07:01:43;;;;;;;46.13;30.20;;;;;;;8.43;100.00;101337.91;4893414;29;20075;-71
2023/04/21 07:04:09;;;;;;;44.75;30.58;;;;;;;8.49;100.00;101334.41;4897269;29;20112;-72
2023/04/21 07:06:34;;;;;;;42.08;30.55;;;;;;;8.59;100.00;101334.31;4904757;29;20676;-72
2023/04/21 07:09:00;;;;;;;47.90;30.08;;;;;;;8.72;100.00;101334.25;4899759;29;20032;-72
2023/04/21 07:11:27;;;;;;;43.08;28.35;;;;;;;8.81;100.00;101337.72;4911852;29;20504;-72
2023/04/21 07:13:53;;;;;;;41.50;29.02;;;;;;;8.88;100.00;101335.00;4889559;29;20194;-72
2023/04/21 07:16:19;;;;;;;43.00;29.25;;;;;;;8.95;100.00;101336.72;4899703;29;20067;-72
2023/04/21 07:18:44;;;;;;;49.33;29.98;;;;;;;9.03;100.00;101337.56;4905314;29;20580;-72
2023/04/21 07:21:10;;;;;;;36.03;26.65;;;;;;;9.07;100.00;101334.00;4899464;29;20048;-73
2023/04/21 07:23:35;;;;;;;45.28;29.38;;;;;;;9.12;100.00;101339.25;4916377;29;20032;-72
2023/04/21 07:26:01;;;;;;;37.50;26.80;;;;;;;9.17;98.86;101346.28;4899167;29;20036;-72
2023/04/21 07:28:26;;;;;;;38.95;26.52;;;;;;;9.21;99.61;101345.34;4915955;29;20028;-72
2023/04/21 07:30:52;;;;;;;36.10;25.15;;;;;;;9.23;98.48;101343.56;4907111;29;20032;-72
2023/04/21 07:33:17;;;;;;;33.85;25.13;;;;;;;9.23;98.18;101335.63;4905128;29;20037;-72
2023/04/21 07:35:43;;;;;;;37.22;26.40;;;;;;;9.26;97.23;101340.03;4896317;29;20581;-72
2023/04/21 07:38:08;;;;;;;34.72;26.00;;;;;;;9.27;96.22;101325.91;4910701;29;20055;-72
2023/04/21 07:40:34;;;;;;;35.80;26.45;;;;;;;9.31;97.04;101324.13;4902859;29;20187;-72
2023/04/21 07:42:59;;;;;;;39.25;28.17;;;;;;;9.33;95.49;101330.28;4911330;29;20449;-71
2023/04/21 07:45:25;;;;;;;35.70;24.92;;;;;;;9.33;95.41;101325.88;4896845;29;20044;-71
2023/04/21 07:47:51;;;;;;;36.50;26.48;;;;;;;9.43;97.30;101326.66;4897348;29;20580;-71
2023/04/21 07:50:16;;;;;;;34.75;25.85;;;;;;;9.58;96.03;101325.63;4896990;29;20104;-72
2023/04/21 07:52:42;;;;;;;34.33;25.02;;;;;;;9.72;94.74;101323.72;4897124;29;20506;-72
2023/04/21 07:55:08;;;;;;;32.95;23.02;;;;;;;9.82;93.05;101335.97;4896646;29;20040;-74
2023/04/21 07:57:37;;;;;;;30.35;23.20;;;;;;;9.87;91.32;101328.84;4910841;29;20032;-72
2023/04/21 08:00:04;;;;;;;31.48;23.52;;;;;;;9.88;92.40;101327.06;4903205;29;20055;-72
2023/04/21 08:02:37;;;;;;;31.45;23.38;;;;;;;9.98;91.77;101326.06;4915660;29;20055;-72
2023/04/21 08:05:03;;;;;;;37.50;25.42;;;;;;;10.08;90.89;101319.78;4915776;29;20039;-72
2023/04/21 08:07:29;;;;;;;29.58;22.45;;;;;;;10.18;90.77;101317.88;4915915;29;20488;-72
2023/04/21 08:09:55;;;;;;;30.92;23.02;;;;;;;10.33;89.65;101324.78;4915638;29;20499;-72
2023/04/21 08:12:20;;;;;;;29.52;22.83;;;;;;;10.42;89.59;101316.72;4904721;29;20054;-72
2023/04/21 08:14:45;;;;;;;30.23;22.17;;;;;;;10.50;88.92;101320.13;4914512;29;20059;-72
2023/04/21 08:17:11;;;;;;;26.92;21.58;;;;;;;10.58;87.91;101325.31;4908090;29;20088;-72
2023/04/21 08:19:36;;;;;;;29.30;21.25;;;;;;;10.68;87.17;101315.47;4910039;29;20051;-72
2023/04/21 08:22:02;;;;;;;27.50;21.38;;;;;;;10.81;87.96;101313.53;4915912;29;20111;-72
2023/04/21 08:24:27;;;;;;;29.55;21.00;;;;;;;10.91;86.44;101320.44;4904286;29;20044;-72
2023/04/21 08:26:53;;;;;;;25.23;18.98;;;;;;;10.95;85.92;101323.03;4913894;29;20024;-72
2023/04/21 08:29:18;;;;;;;24.92;18.23;;;;;;;11.01;86.47;101322.06;4914989;29;20044;-72
2023/04/21 08:31:44;;;;;;;24.10;18.10;;;;;;;11.07;83.41;101318.41;4911705;29;20364;-72
2023/04/21 08:34:09;;;;;;;24.35;18.08;;;;;;;11.16;85.49;101316.50;4915521;29;20036;-72
2023/04/21 08:36:35;;;;;;;26.02;17.55;;;;;;;11.25;83.55;101314.56;4915629;29;20500;-72
2023/04/21 08:39:01;;;;;;;24.80;18.50;;;;;;;11.28;83.06;101311.91;4898348;29;20135;-72
2023/04/21 08:41:26;;;;;;;23.90;18.70;;;;;;;11.33;83.88;101310.03;4915515;29;20093;-72
2023/04/21 08:43:52;;;;;;;23.23;18.25;;;;;;;11.40;83.49;101309.91;4898368;29;20167;-72
2023/04/21 08:46:18;;;;;;;21.30;16.55;;;;;;;11.37;83.95;101307.31;4898633;29;20462;-72
2023/04/21 08:48:45;;;;;;;29.58;18.90;;;;;;;11.48;84.32;101307.09;4915485;29;20038;-72
2023/04/21 08:51:17;;;;;;;25.17;17.45;;;;;;;11.57;83.48;101306.03;4891087;29;20036;-72
2023/04/21 08:53:43;;;;;;;22.08;16.77;;;;;;;11.62;81.66;101305.09;4884998;29;20069;-72
2023/04/21 08:56:08;;;;;;;24.42;17.40;;;;;;;11.68;80.79;101311.19;4902751;29;20028;-72
2023/04/21 08:58:34;;;;;;;27.40;15.88;;;;;;;11.82;81.60;101306.47;4907204;29;20449;-72
2023/04/21 09:01:00;;;;;;;20.33;15.70;;;;;;;12.04;80.44;101304.28;4910319;29;20039;-71
2023/04/21 09:03:27;;;;;;;21.65;15.90;;;;;;;12.16;79.96;101304.03;4915843;29;20040;-72
2023/04/21 09:06:04;;;;;;;23.60;17.52;;;;;;;12.15;80.42;101304.06;4889841;29;20025;-72
2023/04/21 09:08:31;;;;;;;24.00;17.13;;;;;;;12.14;79.11;101305.88;4906292;29;20044;-72
2023/04/21 09:10:58;;;;;;;25.08;18.88;;;;;;;12.23;79.27;101305.66;4918800;29;20388;-72
2023/04/21 09:13:31;;;;;;;23.83;17.52;;;;;;;12.35;79.73;101298.34;4899680;29;20735;-72
2023/04/21 09:15:57;;;;;;;26.48;18.02;;;;;;;12.35;78.24;101293.03;4911152;29;20082;-72
2023/04/21 09:18:24;;;;;;;27.55;17.95;;;;;;;12.46;80.04;101293.63;4894932;29;20024;-72
2023/04/21 09:21:04;;;;;;;28.77;17.85;;;;;;;12.53;78.67;101295.25;4918768;29;20075;-72
2023/04/21 09:23:30;;;;;;;22.37;15.50;;;;;;;12.63;78.40;101293.25;4918624;29;20044;-72
2023/04/21 09:25:55;;;;;;;20.50;14.88;;;;;;;12.87;77.43;101289.16;4909150;29;20112;-72
2023/04/21 09:28:21;;;;;;;22.20;15.52;;;;;;;12.95;75.98;101283.66;4899710;29;20049;-72
2023/04/21 09:30:54;;;;;;;20.77;16.02;;;;;;;12.85;75.96;101294.50;4906828;29;20036;-72
2023/04/21 09:33:19;;;;;;;20.67;15.88;;;;;;;12.80;77.19;101291.09;4918418;29;20052;-72
2023/04/21 09:35:46;;;;;;;19.95;15.55;;;;;;;12.80;76.84;101291.09;4918354;29;20031;-72
2023/04/21 09:38:12;;;;;;;21.25;16.35;;;;;;;12.94;77.02;101292.56;4918428;29;20114;-72
2023/04/21 09:40:39;;;;;;;18.52;14.30;;;;;;;13.07;74.16;101289.53;4913220;29;20123;-72
2023/04/21 09:43:05;;;;;;;23.42;15.25;;;;;;;13.18;73.21;101288.38;4910043;29;20024;-71
2023/04/21 09:45:32;;;;;;;19.73;14.73;;;;;;;13.24;73.15;101289.13;4904590;29;20048;-72
2023/04/21 09:48:00;;;;;;;21.10;15.68;;;;;;;13.32;74.93;101280.97;4909692;29;20131;-72
2023/04/21 09:50:27;;;;;;;20.65;15.93;;;;;;;13.45;74.25;101276.19;4914124;29;20488;-72
2023/04/21 09:52:54;;;;;;;20.58;15.45;;;;;;;13.45;72.38;101286.81;4918239;29;20048;-72
2023/04/21 09:55:28;;;;;;;21.33;15.32;;;;;;;13.58;73.84;101280.28;4895484;29;20444;-71
2023/04/21 09:58:01;;;;;;;17.63;14.80;;;;;;;13.67;72.76;101274.69;4902005;29;20139;-72
2023/04/21 10:00:28;;;;;;;18.55;14.30;;;;;;;13.64;73.14;101281.91;4917967;29;20044;-72
2023/04/21 10:02:54;;;;;;;20.63;13.98;;;;;;;13.60;70.36;101283.78;4900977;29;20270;-72
2023/04/21 10:05:20;;;;;;;18.17;13.00;;;;;;;13.73;72.19;101266.53;4909855;29;20032;-71
2023/04/21 10:07:47;;;;;;;17.27;12.88;;;;;;;13.96;73.42;101276.53;4912834;29;20062;-72
2023/04/21 10:10:32;;;;;;;18.98;12.00;;;;;;;14.14;71.43;101275.13;4911426;29;20311;-71
2023/04/21 10:12:58;;;;;;;16.77;11.82;;;;;;;14.13;69.08;101269.84;4899057;29;20040;-72
2023/04/21 10:15:40;;;;;;;15.40;11.55;;;;;;;14.02;68.23;101263.94;4904942;29;20119;-71
2023/04/21 10:18:18;;;;;;;15.02;11.23;;;;;;;13.89;67.34;101269.63;4910520;29;20399;-72
2023/04/21 10:21:23;;;;;;;18.77;12.48;;;;;;;13.88;69.31;101262.56;4917460;29;20439;-71
2023/04/21 10:23:51;;;;;;;16.95;11.77;;;;;;;14.03;68.71;101253.25;4881538;29;20051;-71
2023/04/21 10:26:22;;;;;;;15.45;12.27;;;;;;;14.20;68.12;101258.97;4905346;29;20472;-71
2023/04/21 10:29:04;;;;;;;;;;;;;;;14.42;70.79;101260.97;4894975;29;20127;-71
2023/04/21 10:31:50;;;;;;;16.63;12.80;;;;;;;14.62;69.18;101255.91;4911674;29;20297;-71
2023/04/21 10:34:17;;;;;;;18.33;12.68;;;;;;;14.69;69.42;101251.25;4909281;29;20476;-72
2023/04/21 10:36:45;;;;;;;16.20;13.13;;;;;;;14.70;67.51;101239.66;4898937;29;20064;-72
2023/04/21 10:39:27;;;;;;;18.23;13.55;;;;;;;14.63;68.11;101235.44;4916044;29;20040;-72
2023/04/21 10:42:19;;;;;;;16.30;13.60;;;;;;;14.81;69.41;101240.19;4915931;29;20425;-71
2023/04/21 10:44:57;;;;;;;16.13;13.05;;;;;;;15.05;67.61;101225.13;4893561;29;20452;-71
2023/04/21 10:47:37;;;;;;;17.50;13.18;;;;;;;15.22;64.87;101219.22;4914525;29;20529;-71
2023/04/21 10:50:13;;;;;;;16.02;13.20;;;;;;;15.45;65.58;101220.19;4916904;29;20087;-71
2023/04/21 10:52:43;;;;;;;16.85;13.35;;;;;;;15.51;63.39;101208.47;4898199;29;20397;-71
2023/04/21 10:55:11;;;;;;;19.92;13.63;;;;;;;15.47;61.51;101215.69;4890269;29;20123;-71
2023/04/21 10:57:39;;;;;;;19.92;14.05;;;;;;;15.39;64.33;101207.09;4915385;29;20028;-71
2023/04/21 11:00:05;;;;;;;15.90;12.23;;;;;;;15.35;61.62;101202.78;4914481;29;20135;-72
2023/04/21 11:02:33;;;;;;;14.52;12.25;;;;;;;15.22;62.74;101200.56;4897922;29;20127;-71
2023/04/21 11:04:59;;;;;;;14.82;13.13;;;;;;;15.15;64.88;101200.81;4916035;29;20054;-72
2023/04/21 11:07:25;;;;;;;17.13;14.00;;;;;;;15.51;65.61;101193.31;4905798;29;20040;-71
2023/04/21 11:09:57;;;;;;;17.05;13.18;;;;;;;15.98;65.56;101185.34;4914145;29;20044;-71